createdAt,value
2018-06-24T00:00:34.994Z,12.74
2018-06-24T00:03:04.412Z,12.73
2018-06-24T00:05:33.032Z,12.78
2018-06-24T00:10:29.946Z,12.81
2018-06-24T00:12:58.255Z,12.81
2018-06-24T00:15:26.633Z,12.78
2018-06-24T00:17:54.955Z,12.74
2018-06-24T00:20:23.323Z,12.68
2018-06-24T00:22:51.725Z,12.64
2018-06-24T00:25:20.055Z,12.56
2018-06-24T00:27:48.401Z,12.42
2018-06-24T00:30:16.758Z,12.30
2018-06-24T00:32:45.171Z,12.23
2018-06-24T00:35:13.524Z,12.13
2018-06-24T00:37:41.816Z,12.06
2018-06-24T00:40:10.187Z,11.92
2018-06-24T00:42:38.516Z,11.78
2018-06-24T00:45:06.880Z,11.63
2018-06-24T00:47:35.180Z,11.48
2018-06-24T00:50:03.541Z,11.35
2018-06-24T00:52:31.901Z,11.26
2018-06-24T00:55:00.339Z,11.17
2018-06-24T00:57:28.631Z,11.13
2018-06-24T01:00:08.278Z,11.06
2018-06-24T01:02:36.670Z,11.02
2018-06-24T01:05:04.979Z,10.99
2018-06-24T01:07:33.269Z,10.96
2018-06-24T01:10:01.576Z,10.92
2018-06-24T01:12:29.910Z,10.91
2018-06-24T01:14:58.385Z,10.87
2018-06-24T01:17:26.740Z,10.94
2018-06-24T01:19:56.388Z,10.90
2018-06-24T01:22:24.788Z,10.90
2018-06-24T01:24:53.825Z,10.83
2018-06-24T01:27:22.212Z,11.19
2018-06-24T01:29:50.726Z,11.38
2018-06-24T01:32:19.048Z,11.51
2018-06-24T01:34:47.417Z,11.74
2018-06-24T01:37:15.739Z,11.81
2018-06-24T01:39:44.199Z,11.91
2018-06-24T01:42:12.564Z,11.97
2018-06-24T01:44:40.909Z,11.89
2018-06-24T01:47:09.198Z,11.84
2018-06-24T01:49:37.580Z,11.86
2018-06-24T01:52:06.020Z,11.78
2018-06-24T01:54:34.497Z,11.66
2018-06-24T01:57:02.770Z,11.69
2018-06-24T01:59:31.126Z,11.52
2018-06-24T02:01:59.420Z,11.49
2018-06-24T02:04:27.780Z,11.33
2018-06-24T02:06:56.117Z,11.18
2018-06-24T02:09:24.490Z,11.04
2018-06-24T02:11:52.800Z,11.02
2018-06-24T02:14:21.046Z,11.02
2018-06-24T02:16:49.978Z,11.04
2018-06-24T02:19:18.254Z,11.07
2018-06-24T02:21:46.522Z,11.18
2018-06-24T02:24:14.882Z,11.24
2018-06-24T02:26:43.306Z,11.36
2018-06-24T02:29:11.598Z,11.45
2018-06-24T02:31:39.908Z,11.56
2018-06-24T02:34:08.171Z,11.68
2018-06-24T02:36:36.469Z,11.79
2018-06-24T02:39:07.734Z,11.86
2018-06-24T02:41:36.087Z,11.87
2018-06-24T02:44:04.489Z,11.95
2018-06-24T02:46:32.738Z,11.92
2018-06-24T02:49:01.023Z,11.91
2018-06-24T02:51:29.374Z,11.88
2018-06-24T02:53:57.699Z,11.87
2018-06-24T02:56:26.211Z,11.84
2018-06-24T02:58:54.553Z,11.80
2018-06-24T03:01:22.921Z,11.74
2018-06-24T03:03:51.235Z,11.72
2018-06-24T03:06:19.623Z,11.66
2018-06-24T03:08:48.124Z,11.64
2018-06-24T03:11:16.485Z,11.57
2018-06-24T03:13:44.854Z,11.54
2018-06-24T03:16:13.169Z,11.51
2018-06-24T03:18:41.504Z,11.50
2018-06-24T03:21:09.845Z,11.46
2018-06-24T03:23:38.119Z,11.49
2018-06-24T03:26:06.473Z,11.48
2018-06-24T03:28:34.803Z,11.49
2018-06-24T03:31:03.317Z,11.54
2018-06-24T03:33:32.520Z,11.59
2018-06-24T03:36:00.865Z,11.62
2018-06-24T03:38:29.448Z,11.65
2018-06-24T03:40:57.740Z,11.69
2018-06-24T03:43:26.053Z,11.68
2018-06-24T03:45:54.367Z,11.70
2018-06-24T03:48:22.963Z,11.69
2018-06-24T03:50:51.388Z,11.71
2018-06-24T03:53:19.726Z,11.71
2018-06-24T03:55:48.795Z,11.73
2018-06-24T03:58:17.116Z,11.75
2018-06-24T04:00:45.443Z,11.78
2018-06-24T04:03:13.832Z,11.78
2018-06-24T04:05:42.160Z,11.85
2018-06-24T04:08:10.437Z,11.92
2018-06-24T04:10:38.667Z,12.05
2018-06-24T04:13:07.018Z,12.12
2018-06-24T04:15:35.360Z,12.22
2018-06-24T04:18:03.748Z,12.31
2018-06-24T04:20:32.120Z,12.44
2018-06-24T04:23:00.412Z,12.51
2018-06-24T04:25:28.718Z,12.52
2018-06-24T04:27:57.074Z,12.52
2018-06-24T04:30:25.459Z,12.55
2018-06-24T04:32:53.747Z,12.61
2018-06-24T04:35:22.085Z,12.73
2018-06-24T04:37:50.454Z,12.83
2018-06-24T04:40:18.726Z,12.87
2018-06-24T04:42:47.043Z,12.94
2018-06-24T04:45:15.365Z,12.99
2018-06-24T04:47:43.677Z,12.95
2018-06-24T04:50:11.991Z,12.96
2018-06-24T04:52:40.328Z,13.02
2018-06-24T04:55:08.680Z,13.01
2018-06-24T04:57:37.047Z,13.09
2018-06-24T05:00:05.501Z,13.24
2018-06-24T05:02:33.830Z,13.42
2018-06-24T05:05:02.125Z,13.60
2018-06-24T05:07:30.479Z,13.66
2018-06-24T05:09:58.849Z,13.81
2018-06-24T05:12:27.709Z,13.73
2018-06-24T05:14:55.998Z,13.92
2018-06-24T05:17:24.311Z,14.13
2018-06-24T05:19:52.697Z,14.11
2018-06-24T05:22:21.032Z,14.33
2018-06-24T05:24:49.462Z,14.39
2018-06-24T05:27:17.781Z,14.48
2018-06-24T05:29:46.159Z,14.39
2018-06-24T05:32:14.581Z,14.51
2018-06-24T05:34:42.943Z,14.57
2018-06-24T05:37:11.235Z,14.77
2018-06-24T05:39:39.648Z,14.71
2018-06-24T05:42:08.094Z,14.94
2018-06-24T05:44:36.444Z,15.00
2018-06-24T05:47:04.703Z,15.12
2018-06-24T05:49:33.069Z,15.05
2018-06-24T05:52:01.382Z,15.18
2018-06-24T05:54:29.725Z,15.12
2018-06-24T05:56:58.105Z,14.98
2018-06-24T05:59:26.439Z,15.04
2018-06-24T06:01:54.798Z,15.17
2018-06-24T06:04:23.171Z,15.10
2018-06-24T06:06:51.507Z,15.06
2018-06-24T06:09:20.272Z,15.09
2018-06-24T06:11:48.639Z,15.06
2018-06-24T06:14:17.427Z,14.96
2018-06-24T06:16:45.741Z,15.17
2018-06-24T06:19:14.127Z,15.16
2018-06-24T06:21:42.470Z,15.31
2018-06-24T06:24:10.990Z,15.25
2018-06-24T06:26:39.465Z,15.35
2018-06-24T06:29:07.765Z,15.39
2018-06-24T06:31:36.566Z,15.37
2018-06-24T06:34:04.961Z,15.58
2018-06-24T06:36:33.304Z,15.41
2018-06-24T06:39:01.630Z,15.51
2018-06-24T06:41:29.977Z,15.60
2018-06-24T06:43:58.340Z,15.71
2018-06-24T06:46:26.612Z,15.98
2018-06-24T06:48:54.921Z,16.23
2018-06-24T06:51:24.344Z,16.51
2018-06-24T06:53:52.707Z,16.35
2018-06-24T06:56:21.273Z,16.48
2018-06-24T06:58:49.560Z,16.49
2018-06-24T07:01:18.036Z,16.85
2018-06-24T07:03:46.305Z,16.99
2018-06-24T07:06:14.922Z,17.20
2018-06-24T07:08:43.546Z,17.14
2018-06-24T07:11:11.959Z,17.02
2018-06-24T07:13:40.413Z,16.90
2018-06-24T07:16:08.839Z,17.02
2018-06-24T07:18:37.178Z,16.28
2018-06-24T07:21:05.590Z,16.63
2018-06-24T07:23:33.948Z,17.02
2018-06-24T07:26:02.564Z,17.43
2018-06-24T07:28:30.893Z,17.88
2018-06-24T07:30:59.249Z,18.07
2018-06-24T07:33:27.805Z,17.64
2018-06-24T07:35:56.027Z,18.16
2018-06-24T07:38:24.342Z,18.39
2018-06-24T07:40:52.693Z,18.05
2018-06-24T07:43:20.997Z,18.15
2018-06-24T07:45:49.478Z,18.00
2018-06-24T07:48:17.793Z,18.33
2018-06-24T07:50:46.120Z,18.59
2018-06-24T07:53:14.527Z,18.67
2018-06-24T07:55:42.925Z,18.66
2018-06-24T07:58:11.290Z,18.55
2018-06-24T08:00:39.749Z,18.75
2018-06-24T08:03:08.061Z,19.25
2018-06-24T08:05:36.461Z,18.89
2018-06-24T08:08:04.955Z,19.28
2018-06-24T08:10:33.242Z,19.02
2018-06-24T08:13:01.801Z,19.63
2018-06-24T08:15:30.089Z,19.90
2018-06-24T08:17:58.529Z,20.17
2018-06-24T08:20:27.002Z,20.02
2018-06-24T08:22:55.565Z,20.30
2018-06-24T08:25:24.057Z,20.54
2018-06-24T08:27:52.437Z,21.09
2018-06-24T08:30:20.861Z,21.28
2018-06-24T08:32:49.188Z,21.42
2018-06-24T08:35:17.538Z,21.51
2018-06-24T08:37:46.131Z,21.27
2018-06-24T08:40:14.565Z,20.99
2018-06-24T08:42:42.844Z,20.93
2018-06-24T08:45:11.421Z,20.24
2018-06-24T08:47:39.752Z,19.84
2018-06-24T08:50:08.232Z,20.23
2018-06-24T08:52:36.608Z,20.45
2018-06-24T08:55:04.987Z,20.58
2018-06-24T08:57:33.347Z,20.79
2018-06-24T09:00:01.761Z,20.77
2018-06-24T09:02:30.115Z,20.77
2018-06-24T09:04:58.584Z,21.41
2018-06-24T09:07:27.018Z,21.94
2018-06-24T09:09:55.394Z,22.64
2018-06-24T09:12:23.730Z,23.02
2018-06-24T09:17:45.081Z,23.21
2018-06-24T09:20:13.505Z,23.72
2018-06-24T09:22:41.841Z,24.19
2018-06-24T09:25:10.225Z,23.70
2018-06-24T09:27:38.748Z,23.38
2018-06-24T09:30:07.254Z,23.90
2018-06-24T09:32:35.702Z,24.58
2018-06-24T09:35:04.144Z,24.62
2018-06-24T09:37:32.620Z,24.55
2018-06-24T09:40:01.194Z,24.59
2018-06-24T09:42:29.601Z,24.29
2018-06-24T09:44:57.936Z,23.72
2018-06-24T09:47:26.330Z,24.21
2018-06-24T09:49:54.687Z,24.21
2018-06-24T09:52:23.055Z,24.07
2018-06-24T09:54:51.527Z,24.57
2018-06-24T09:57:20.018Z,24.24
2018-06-24T09:59:48.441Z,24.73
2018-06-24T10:02:16.756Z,23.80
2018-06-24T10:04:46.821Z,24.10
2018-06-24T10:07:15.226Z,24.27
2018-06-24T10:09:43.621Z,23.92
2018-06-24T10:12:11.969Z,23.63
2018-06-24T10:14:40.420Z,24.22
2018-06-24T10:17:08.878Z,24.72
2018-06-24T10:19:37.204Z,24.55
2018-06-24T10:22:05.470Z,25.01
2018-06-24T10:24:34.209Z,25.57
2018-06-24T10:27:02.522Z,26.18
2018-06-24T10:29:30.846Z,26.56
2018-06-24T10:31:59.082Z,26.16
2018-06-24T10:34:27.436Z,25.91
2018-06-24T10:36:55.879Z,25.78
2018-06-24T10:39:24.211Z,24.92
2018-06-24T10:41:52.609Z,24.01
2018-06-24T10:44:21.072Z,23.46
2018-06-24T10:46:49.482Z,23.75
2018-06-24T10:49:17.865Z,24.33
2018-06-24T10:51:47.051Z,24.51
2018-06-24T10:54:15.340Z,25.47
2018-06-24T10:56:43.985Z,25.56
2018-06-24T10:59:12.417Z,26.57
2018-06-24T11:01:41.037Z,26.86
2018-06-24T11:04:09.626Z,26.93
2018-06-24T11:06:38.029Z,27.17
2018-06-24T11:09:08.839Z,25.89
2018-06-24T11:11:37.536Z,24.99
2018-06-24T11:14:07.220Z,24.72
2018-06-24T11:16:36.237Z,23.92
2018-06-24T11:19:04.557Z,24.84
2018-06-24T11:21:32.887Z,25.38
2018-06-24T11:24:01.300Z,25.00
2018-06-24T11:26:31.487Z,25.17
2018-06-24T11:29:00.020Z,25.38
2018-06-24T11:31:28.365Z,25.64
2018-06-24T11:33:56.663Z,26.04
2018-06-24T11:36:24.983Z,26.37
2018-06-24T11:38:53.335Z,26.32
2018-06-24T11:41:21.643Z,25.32
2018-06-24T11:43:49.960Z,24.55
2018-06-24T11:46:18.341Z,24.51
2018-06-24T11:48:46.675Z,24.91
2018-06-24T11:51:15.717Z,25.04
2018-06-24T11:53:44.203Z,24.25
2018-06-24T11:56:12.553Z,24.70
2018-06-24T11:58:41.003Z,25.36
2018-06-24T12:01:09.593Z,25.97
2018-06-24T12:03:37.979Z,26.34
2018-06-24T12:06:06.272Z,26.30
2018-06-24T12:08:34.561Z,26.24
2018-06-24T12:11:02.998Z,26.72
2018-06-24T12:13:31.353Z,26.99
2018-06-24T12:15:59.682Z,26.71
2018-06-24T12:18:27.940Z,27.49
2018-06-24T12:20:56.369Z,28.03
2018-06-24T12:23:26.409Z,28.18
2018-06-24T12:25:54.810Z,26.62
2018-06-24T12:28:23.227Z,26.54
2018-06-24T12:30:52.020Z,26.29
2018-06-24T12:33:20.414Z,26.87
2018-06-24T12:35:48.673Z,27.26
2018-06-24T12:38:17.001Z,26.71
2018-06-24T12:40:45.359Z,26.85
2018-06-24T12:43:13.720Z,26.50
2018-06-24T12:45:42.075Z,26.11
2018-06-24T12:48:10.602Z,25.48
2018-06-24T12:50:39.009Z,25.19
2018-06-24T12:53:07.353Z,25.23
2018-06-24T12:55:35.745Z,25.50
2018-06-24T12:58:04.064Z,26.52
2018-06-24T13:00:32.903Z,26.50
2018-06-24T13:03:00.704Z,26.51
2018-06-24T13:05:29.199Z,26.52
2018-06-24T13:07:57.489Z,25.80
2018-06-24T13:10:25.860Z,25.69
2018-06-24T13:12:54.174Z,26.03
2018-06-24T13:15:22.570Z,26.64
2018-06-24T13:17:50.975Z,27.16
2018-06-24T13:20:19.267Z,27.77
2018-06-24T13:22:47.636Z,29.03
2018-06-24T13:25:15.975Z,30.05
2018-06-24T13:27:44.300Z,30.87
2018-06-24T13:30:12.791Z,30.55
2018-06-24T13:32:41.296Z,30.44
2018-06-24T13:35:09.656Z,31.81
2018-06-24T13:37:37.987Z,32.12
2018-06-24T13:40:06.866Z,34.29
2018-06-24T13:42:35.255Z,35.86
2018-06-24T13:45:04.433Z,36.52
2018-06-24T13:47:32.761Z,36.22
2018-06-24T13:50:01.081Z,38.41
2018-06-24T13:52:29.991Z,38.54
2018-06-24T13:54:58.302Z,37.71
2018-06-24T13:57:26.593Z,39.01
2018-06-24T13:59:54.888Z,37.51
2018-06-24T14:02:23.172Z,38.66
2018-06-24T14:04:51.512Z,36.98
2018-06-24T14:07:19.888Z,35.49
2018-06-24T14:09:48.868Z,33.27
2018-06-24T14:12:17.222Z,31.80
2018-06-24T14:14:45.501Z,30.35
2018-06-24T14:17:13.890Z,29.25
2018-06-24T14:19:42.246Z,28.57
2018-06-24T14:22:10.971Z,28.50
2018-06-24T14:24:39.296Z,27.80
2018-06-24T14:27:07.636Z,27.51
2018-06-24T14:29:35.927Z,27.49
2018-06-24T14:32:04.343Z,26.89
2018-06-24T14:34:32.745Z,27.01
2018-06-24T14:37:01.099Z,26.85
2018-06-24T14:39:29.525Z,26.77
2018-06-24T14:41:57.992Z,26.80
2018-06-24T14:44:26.339Z,26.66
2018-06-24T14:46:54.701Z,26.11
2018-06-24T14:49:23.072Z,25.62
2018-06-24T14:51:51.631Z,25.25
2018-06-24T14:54:19.977Z,25.24
2018-06-24T14:56:48.458Z,25.85
2018-06-24T14:59:16.871Z,26.04
2018-06-24T15:01:45.215Z,25.44
2018-06-24T15:04:13.440Z,25.88
2018-06-24T15:06:41.797Z,25.62
2018-06-24T15:09:11.816Z,26.43
2018-06-24T15:11:40.180Z,26.65
2018-06-24T15:14:08.885Z,26.57
2018-06-24T15:16:37.586Z,27.08
2018-06-24T15:19:06.489Z,26.50
2018-06-24T15:21:34.862Z,26.35
2018-06-24T15:24:03.158Z,26.31
2018-06-24T15:26:31.488Z,27.63
2018-06-24T15:28:59.902Z,27.71
2018-06-24T15:31:28.240Z,28.39
2018-06-24T15:33:56.568Z,29.65
2018-06-24T15:36:24.866Z,30.04
2018-06-24T15:38:53.194Z,29.30
2018-06-24T15:41:21.553Z,28.37
2018-06-24T15:43:50.684Z,28.75
2018-06-24T15:46:19.224Z,28.44
2018-06-24T15:48:47.690Z,28.36
2018-06-24T15:51:17.821Z,27.94
2018-06-24T15:53:46.269Z,27.29
2018-06-24T15:56:15.210Z,28.75
2018-06-24T15:58:43.633Z,28.12
2018-06-24T16:01:11.955Z,27.32
2018-06-24T16:03:40.278Z,28.10
2018-06-24T16:06:08.637Z,30.21
2018-06-24T16:08:36.938Z,29.01
2018-06-24T16:11:05.243Z,27.16
2018-06-24T16:13:33.831Z,26.53
2018-06-24T16:16:02.277Z,25.28
2018-06-24T16:18:31.238Z,24.60
2018-06-24T16:20:59.646Z,24.84
2018-06-24T16:23:28.092Z,24.58
2018-06-24T16:25:57.311Z,24.50
2018-06-24T16:28:25.746Z,24.12
2018-06-24T16:30:54.110Z,25.56
2018-06-24T16:33:22.425Z,25.45
2018-06-24T16:35:50.769Z,26.47
2018-06-24T16:38:19.149Z,26.66
2018-06-24T16:40:47.834Z,28.17
2018-06-24T16:43:16.417Z,26.45
2018-06-24T16:45:44.975Z,26.28
2018-06-24T16:48:13.554Z,26.31
2018-06-24T16:50:41.925Z,26.95
2018-06-24T16:53:10.388Z,26.61
2018-06-24T16:55:38.833Z,25.85
2018-06-24T16:58:07.202Z,25.19
2018-06-24T17:00:36.424Z,24.41
2018-06-24T17:03:05.273Z,23.60
2018-06-24T17:05:33.577Z,22.97
2018-06-24T17:08:02.045Z,22.78
2018-06-24T17:10:30.672Z,22.06
2018-06-24T17:12:59.077Z,21.77
2018-06-24T17:15:27.521Z,21.32
2018-06-24T17:17:55.968Z,20.97
2018-06-24T17:20:24.577Z,20.75
2018-06-24T17:22:53.082Z,20.80
2018-06-24T17:25:21.519Z,20.88
2018-06-24T17:27:49.868Z,20.90
2018-06-24T17:30:18.191Z,20.95
2018-06-24T17:32:46.488Z,21.09
2018-06-24T17:35:14.818Z,21.26
2018-06-24T17:37:43.216Z,21.35
2018-06-24T17:40:11.561Z,21.54
2018-06-24T17:42:39.871Z,22.17
2018-06-24T17:45:08.182Z,22.72
2018-06-24T17:47:36.585Z,23.13
2018-06-24T17:50:04.986Z,23.12
2018-06-24T17:52:33.324Z,22.82
2018-06-24T17:55:01.690Z,22.40
2018-06-24T17:57:30.233Z,22.17
2018-06-24T17:59:58.721Z,21.90
2018-06-24T18:02:27.405Z,21.00
2018-06-24T18:04:55.748Z,21.09
2018-06-24T18:07:24.065Z,20.69
2018-06-24T18:09:57.461Z,20.56
2018-06-24T18:12:25.884Z,20.36
2018-06-24T18:14:54.202Z,20.26
2018-06-24T18:17:22.581Z,20.04
2018-06-24T18:19:51.008Z,19.86
2018-06-24T18:22:19.377Z,19.81
2018-06-24T18:24:47.724Z,19.71
2018-06-24T18:27:16.097Z,19.60
2018-06-24T18:29:44.466Z,19.45
2018-06-24T18:32:12.906Z,19.32
2018-06-24T18:34:41.170Z,19.28
2018-06-24T18:37:09.527Z,19.25
2018-06-24T18:39:37.943Z,19.14
2018-06-24T18:42:06.324Z,19.11
2018-06-24T18:44:34.661Z,19.05
2018-06-24T18:47:03.695Z,18.97
2018-06-24T18:49:32.024Z,18.93
2018-06-24T18:52:00.464Z,18.86
2018-06-24T18:54:28.780Z,18.85
2018-06-24T18:56:57.076Z,18.83
2018-06-24T18:59:25.464Z,18.85
2018-06-24T19:01:54.617Z,18.86
2018-06-24T19:04:23.502Z,18.83
2018-06-24T19:06:51.855Z,18.76
2018-06-24T19:09:20.107Z,18.79
2018-06-24T19:11:48.434Z,18.69
2018-06-24T19:14:16.704Z,18.63
2018-06-24T19:16:44.992Z,18.71
2018-06-24T19:19:13.401Z,18.63
2018-06-24T19:21:41.736Z,18.54
2018-06-24T19:24:10.058Z,18.48
2018-06-24T19:26:38.308Z,18.40
2018-06-24T19:29:06.576Z,18.44
2018-06-24T19:31:34.882Z,18.36
2018-06-24T19:34:03.222Z,18.37
2018-06-24T19:36:31.728Z,18.36
2018-06-24T19:39:00.103Z,18.38
2018-06-24T19:41:28.442Z,18.40
2018-06-24T19:43:56.879Z,18.33
2018-06-24T19:46:25.143Z,18.26
2018-06-24T19:48:53.881Z,18.24
2018-06-24T19:51:22.203Z,18.12
2018-06-24T19:53:50.745Z,18.16
2018-06-24T19:56:19.240Z,18.11
2018-06-24T19:58:47.590Z,18.13
2018-06-24T20:01:15.895Z,18.16
2018-06-24T20:03:44.446Z,18.17
2018-06-24T20:06:12.988Z,18.16
2018-06-24T20:08:41.295Z,18.17
2018-06-24T20:11:09.701Z,18.23
2018-06-24T20:13:38.093Z,18.19
2018-06-24T20:16:29.914Z,18.18
2018-06-24T20:18:58.271Z,18.13
2018-06-24T20:21:26.653Z,18.09
2018-06-24T20:23:55.006Z,18.06
2018-06-24T20:26:23.333Z,18.03
2018-06-24T20:28:51.863Z,18.04
2018-06-24T20:31:20.249Z,18.06
2018-06-24T20:33:48.586Z,18.00
2018-06-24T20:36:16.941Z,18.04
2018-06-24T20:38:45.321Z,18.01
2018-06-24T20:41:13.631Z,17.92
2018-06-24T20:44:13.943Z,17.94
2018-06-24T20:46:43.702Z,17.88
2018-06-24T20:49:12.088Z,17.85
2018-06-24T20:51:40.453Z,17.82
2018-06-24T20:54:09.349Z,17.78
2018-06-24T20:56:38.088Z,17.72
2018-06-24T20:59:06.369Z,17.67
2018-06-24T21:01:34.679Z,17.66
2018-06-24T21:04:03.017Z,17.63
2018-06-24T21:06:31.393Z,17.67
2018-06-24T21:08:59.750Z,17.64
2018-06-24T21:11:28.176Z,17.62
2018-06-24T21:13:56.495Z,17.57
2018-06-24T21:16:24.929Z,17.59
2018-06-24T21:18:53.343Z,17.53
2018-06-24T21:21:21.690Z,17.46
2018-06-24T21:23:49.988Z,17.51
2018-06-24T21:26:18.353Z,17.46
2018-06-24T21:28:46.717Z,17.43
2018-06-24T21:31:15.347Z,17.34
2018-06-24T21:33:43.797Z,17.32
2018-06-24T21:36:12.133Z,17.36
2018-06-24T21:38:40.492Z,17.31
2018-06-24T21:41:08.798Z,17.30
2018-06-24T21:43:37.115Z,17.30
2018-06-24T21:46:05.899Z,17.36
2018-06-24T21:48:34.581Z,17.29
2018-06-24T21:51:02.909Z,17.26
2018-06-24T21:53:31.331Z,17.22
2018-06-24T21:55:59.623Z,17.23
2018-06-24T21:58:28.087Z,17.18
2018-06-24T22:00:56.501Z,17.16
2018-06-24T22:03:24.833Z,17.14
2018-06-24T22:05:53.238Z,17.13
2018-06-24T22:08:21.611Z,17.12
2018-06-24T22:10:50.150Z,17.02
2018-06-24T22:13:18.640Z,17.05
2018-06-24T22:15:47.317Z,17.02
2018-06-24T22:18:15.675Z,16.98
2018-06-24T22:20:44.015Z,16.91
2018-06-24T22:23:12.327Z,16.86
2018-06-24T22:25:40.622Z,16.84
2018-06-24T22:28:08.960Z,16.81
2018-06-24T22:30:37.561Z,16.78
2018-06-24T22:33:05.896Z,16.73
2018-06-24T22:35:34.199Z,16.72
2018-06-24T22:38:02.473Z,16.73
2018-06-24T22:40:30.928Z,16.71
2018-06-24T22:42:59.384Z,16.69
2018-06-24T22:45:27.679Z,16.68
2018-06-24T22:47:58.812Z,16.70
2018-06-24T22:50:27.332Z,16.75
2018-06-24T22:52:55.823Z,16.75
2018-06-24T22:55:24.296Z,16.72
2018-06-24T22:57:52.744Z,16.74
2018-06-24T23:00:23.573Z,16.64
2018-06-24T23:02:52.373Z,16.58
2018-06-24T23:05:20.851Z,16.57
2018-06-24T23:07:49.358Z,16.55
2018-06-24T23:10:17.674Z,16.51
2018-06-24T23:12:46.260Z,16.45
2018-06-24T23:15:15.052Z,16.42
2018-06-24T23:17:43.947Z,16.46
2018-06-24T23:20:12.633Z,16.41
2018-06-24T23:22:40.964Z,16.34
2018-06-24T23:25:09.770Z,16.32
2018-06-24T23:27:38.497Z,16.27
2018-06-24T23:30:07.513Z,16.27
2018-06-24T23:32:35.924Z,16.29
2018-06-24T23:35:04.820Z,16.30
2018-06-24T23:37:33.579Z,16.28
2018-06-24T23:40:02.022Z,16.23
2018-06-24T23:42:30.371Z,16.22
2018-06-24T23:44:58.853Z,16.23
2018-06-24T23:47:27.358Z,16.20
2018-06-24T23:49:55.965Z,16.20
2018-06-24T23:52:24.292Z,16.20
2018-06-24T23:54:52.584Z,16.20
2018-06-24T23:57:20.906Z,16.11
2018-06-24T23:59:49.218Z,16.12
